Shalalth, Canada
Current Conditions -  °F | °C
As of 12:00 AM on Wednesday 26 Nov 2014 (Local Time) from CYIN Reporting Station
Light Snow Light Snow  
Wind Chill: 22°   Ceiling: 1600
Heat Index: 28°   Visibility: 1.2mi
Dew Point: 27°   Wind: 6mph
Humidity: 93%   Direction: 90°E
Pressure: 30.09"   Gusts: NA
Location:  50.73°N, 122.23°W
Report Text: CYIN 260800Z AUTO 09005KT 1 1/4SM -SN FEW007 OVC016 M02/M03 A3009 RMK PRESFR PCPN 0.8MM PAST HR SLP229
Loading
Personal Weather Stations






























Interactive Weather Map New forecast layout! Learn more

10-Day Weather Forecast

Advertisements
Track Severe Weather on mobile